Flight Track Log - Related Links

Times and Time Zones

All times are in EDT time to prevent confusion due to time zone crossing. See the DAL3741 flight status page for this flight to view local times or setup timezone preferences in your user account.

Time Position Orientation Groundspeed Altitude Reporting Facility
EDT Latitude Longitude Course Direction KTS MPH feet Rate Location/Type
Tue 04:31:49 PM 44.7606 -89.7383 284° West 197 227 4,300  Level Minneapolis Center
Tue 04:32:51 PM 44.7675 -89.8333 276° West 241 277 6,800 2,758 Climbing Minneapolis Center
Tue 04:33:00 PM 44.8013 -89.9855 275° West  Level FlightAware Approximate
Tue 04:33:53 PM 44.7769 -89.9397 277° West 259 298 10,000  Level Minneapolis Center
Tue 04:34:00 PM 44.8086 -90.0949 275° West  Level FlightAware Approximate
Tue 04:34:55 PM 44.7853 -90.0461 276° West 283 326 11,100  Level Minneapolis Center
Tue 04:35:00 PM 44.8159 -90.2044 275° West  Level FlightAware Approximate
Tue 04:35:57 PM 44.7969 -90.1842 277° West 335 386 12,400  Level Minneapolis Center
Tue 04:36:00 PM 44.8167 -90.3142 270° West  Level FlightAware Approximate
Tue 04:36:59 PM 44.8100 -90.3267 277° West 352 405 13,900  Level Minneapolis Center
Tue 04:38:01 PM 44.8278 -90.4744 280° West 367 422 13,900 48 Level Minneapolis Center
Tue 04:39:03 PM 44.8472 -90.6219 281° West 369 425 14,000 48 Climbing Minneapolis Center
Tue 04:40:05 PM 44.8669 -90.7689 281° West 368 423 14,000 48 Level Minneapolis Center
Tue 04:41:07 PM 44.8858 -90.9164 280° West 366 421 14,100  Climbing Minneapolis Center
Tue 04:42:09 PM 44.9042 -91.0675 280° West 372 428 14,000 -48 Descending Minneapolis Center
Tue 04:43:11 PM 44.9214 -91.2031 280° West 369 425 14,000  Level Minneapolis Center
Tue 04:44:13 PM 44.9392 -91.3528 280° West 370 426 14,000 48 Level Minneapolis Center
Tue 04:45:15 PM 44.9569 -91.5014 280° West 370 426 14,100  Climbing Minneapolis Center
Tue 04:46:17 PM 44.9756 -91.6422 281° West 369 425 14,000 -48 Descending Minneapolis Center
Tue 04:47:19 PM 44.9917 -91.7792 279° West 359 413 14,000 -397 Level Minneapolis Center
Tue 04:48:33 PM 45.0078 -91.9194 279° West 362 417 13,100 -920 Descending Minneapolis Center
Tue 04:49:36 PM 45.0267 -92.0831 279° West 354 407 11,900 -1,008 Descending Minneapolis Center
Tue 04:50:38 PM 45.0453 -92.2419 279° West 345 397 11,000 -435 Descending Minneapolis Center
Tue 04:51:40 PM 45.0367 -92.3694 265° West 332 382 11,000  Level Minneapolis Center
Tue 04:52:41 PM 45.0072 -92.4861 250° West 317 365 11,000 -341 Level Minneapolis Center
Tue 04:53:43 PM 44.9639 -92.5597 230° Southwest 244 281 10,300 -1,016 Descending Minneapolis Center
Tue 04:54:45 PM 44.9181 -92.6094 218° Southwest 211 243 8,900 -1,500 Descending Minneapolis Center
Tue 04:55:47 PM 44.8831 -92.6864 237° Southwest 204 235 7,200 -1,113 Descending Minneapolis Center
Tue 04:56:49 PM 44.8625 -92.7611 249° West 205 236 6,600 -1,161 Descending Minneapolis Center
Tue 04:57:51 PM 44.8403 -92.8414 249° West 219 252 4,800 -1,258 Descending Minneapolis Center
Tue 04:58:53 PM 44.8269 -92.9244 257° West 214 246 4,000 -581 Descending Minneapolis Center
Tue 04:59:55 PM 44.8281 -92.9978 271° West 190 219 3,600 -532 Descending Minneapolis Center
Tue 05:00:57 PM 44.8303 -93.0633 273° West 171 197 2,900 -677 Descending Minneapolis Center

Login

Don't have an account? Register now (free) for customized features, flight alerts, and more!